Time;durP1;ratioP1;P1;durP2;ratioP2;P2;SDS_P1;SDS_P2;PMS_P1;PMS_P2;Temp;Humidity;BMP_temperature;BMP_pressure;BME280_temperature;BME280_humidity;BME280_pressure;Samples;Min_cycle;Max_cycle;Signal;HPM_P1;HPM_P2
2023/04/15 00:01:10;;;;;;;9.50;3.65;;;6.60;99.90;;;;;;6232919;22;20519;-80
2023/04/15 00:03:38;;;;;;;8.30;4.40;;;6.70;99.90;;;;;;6210728;22;20024;-80
2023/04/15 00:06:07;;;;;;;5.68;2.90;;;6.60;99.90;;;;;;6212468;22;20035;-81
2023/04/15 00:08:34;;;;;;;6.80;3.58;;;6.60;99.90;;;;;;6214923;22;20023;-81
2023/04/15 00:11:04;;;;;;;6.70;3.20;;;6.60;99.90;;;;;;6208104;22;20110;-81
2023/04/15 00:13:32;;;;;;;7.60;3.47;;;6.60;99.90;;;;;;6205984;22;20027;-81
2023/04/15 00:16:00;;;;;;;7.32;3.67;;;6.70;99.90;;;;;;6207949;22;20402;-81
2023/04/15 00:18:28;;;;;;;10.43;4.10;;;6.70;99.90;;;;;;6237045;22;20314;-81
2023/04/15 00:20:55;;;;;;;8.70;4.85;;;6.70;99.90;;;;;;6208134;22;20347;-81
2023/04/15 00:23:22;;;;;;;8.63;4.38;;;6.80;99.90;;;;;;6207818;22;20110;-81
2023/04/15 00:25:50;;;;;;;9.88;4.15;;;6.80;99.90;;;;;;6206583;22;20369;-80
2023/04/15 00:28:18;;;;;;;7.53;4.07;;;6.80;99.90;;;;;;6211496;22;20035;-81
2023/04/15 00:30:46;;;;;;;7.88;3.90;;;6.80;99.90;;;;;;6208384;22;20023;-80
2023/04/15 00:33:13;;;;;;;7.82;3.65;;;6.80;99.90;;;;;;6207905;22;20027;-80
2023/04/15 00:35:40;;;;;;;9.07;4.30;;;6.80;99.90;;;;;;6204744;22;20023;-80
2023/04/15 00:38:08;;;;;;;8.85;4.22;;;6.90;99.90;;;;;;6215026;22;20051;-80
2023/04/15 00:40:35;;;;;;;10.45;3.95;;;6.90;99.90;;;;;;6247339;22;20011;-81
2023/04/15 00:43:03;;;;;;;7.47;3.92;;;6.80;99.90;;;;;;6212477;22;20020;-81
2023/04/15 00:45:30;;;;;;;14.20;4.47;;;6.90;99.90;;;;;;6207128;22;20180;-81
2023/04/15 00:47:58;;;;;;;11.90;4.97;;;6.90;99.90;;;;;;6208338;22;20031;-81
2023/04/15 00:50:25;;;;;;;11.55;5.15;;;6.90;99.90;;;;;;6211983;22;20428;-80
2023/04/15 00:52:52;;;;;;;12.68;4.78;;;7.00;99.90;;;;;;6208271;22;20023;-80
2023/04/15 00:55:19;;;;;;;9.57;4.70;;;7.00;99.90;;;;;;6210003;22;20449;-80
2023/04/15 00:57:47;;;;;;;8.60;4.25;;;7.00;99.90;;;;;;6212386;22;20386;-80
2023/04/15 01:00:15;;;;;;;8.93;4.10;;;6.90;99.90;;;;;;6208884;22;20029;-81
2023/04/15 01:02:42;;;;;;;6.63;3.55;;;7.00;99.90;;;;;;6234941;22;20064;-81
2023/04/15 01:05:10;;;;;;;7.68;3.95;;;6.90;99.90;;;;;;6211825;22;20030;-81
2023/04/15 01:07:37;;;;;;;9.05;4.55;;;7.00;99.90;;;;;;6219774;22;20061;-80
2023/04/15 01:10:07;;;;;;;8.48;3.83;;;7.00;99.90;;;;;;6209781;22;20020;-80
2023/04/15 01:12:34;;;;;;;10.55;3.97;;;7.10;99.90;;;;;;6217790;22;20459;-80
2023/04/15 01:15:02;;;;;;;7.80;3.80;;;7.00;99.90;;;;;;6211162;22;20020;-80
2023/04/15 01:17:29;;;;;;;11.52;4.32;;;7.00;99.90;;;;;;6206742;22;20026;-80
2023/04/15 01:19:56;;;;;;;10.25;4.90;;;7.00;99.90;;;;;;6207755;22;20028;-80
2023/04/15 01:22:26;;;;;;;8.38;3.50;;;7.10;99.90;;;;;;6206931;22;20027;-80
2023/04/15 01:25:10;;;;;;;6.97;2.85;;;7.10;99.90;;;;;;6207024;22;20015;-80
2023/04/15 01:27:41;;;;;;;6.57;3.10;;;7.10;99.90;;;;;;6209487;22;20046;-80
2023/04/15 01:30:09;;;;;;;7.88;2.72;;;7.10;99.90;;;;;;6206966;22;20109;-80
2023/04/15 01:32:37;;;;;;;6.57;3.00;;;7.10;99.90;;;;;;6206050;22;20027;-80
2023/04/15 01:35:05;;;;;;;7.18;3.80;;;7.10;99.90;;;;;;6209193;22;20023;-80
2023/04/15 01:37:32;;;;;;;10.25;3.28;;;7.10;99.90;;;;;;6206834;22;20433;-80
2023/04/15 01:39:59;;;;;;;6.63;3.22;;;7.20;99.90;;;;;;6207057;22;20027;-80
2023/04/15 01:42:27;;;;;;;7.57;2.80;;;7.20;99.90;;;;;;6206771;22;20030;-80
2023/04/15 01:44:54;;;;;;;4.68;2.40;;;7.20;99.90;;;;;;6205682;22;20051;-80
2023/04/15 01:47:21;;;;;;;4.80;2.15;;;7.20;99.90;;;;;;6205918;22;20745;-80
2023/04/15 01:49:48;;;;;;;5.75;2.40;;;7.20;99.90;;;;;;6206013;22;20105;-80
2023/04/15 01:52:15;;;;;;;5.68;2.83;;;7.20;99.90;;;;;;6233203;22;20024;-80
2023/04/15 01:54:42;;;;;;;7.38;2.65;;;7.20;99.90;;;;;;6230557;22;20018;-80
2023/04/15 01:57:11;;;;;;;4.68;2.28;;;7.20;99.90;;;;;;6206026;22;20019;-80
2023/04/15 01:59:38;;;;;;;4.47;2.30;;;7.30;99.90;;;;;;6208112;22;20068;-80
2023/04/15 02:02:05;;;;;;;5.32;2.20;;;7.30;99.90;;;;;;6206465;22;20526;-80
2023/04/15 02:04:33;;;;;;;5.57;2.85;;;7.30;99.90;;;;;;6207195;22;20016;-80
2023/04/15 02:07:00;;;;;;;4.57;2.03;;;7.30;99.90;;;;;;6231244;22;20023;-80
2023/04/15 02:09:28;;;;;;;4.93;2.17;;;7.30;99.90;;;;;;6205091;22;20023;-80
2023/04/15 02:11:55;;;;;;;4.07;1.90;;;7.30;99.90;;;;;;6207301;22;20070;-80
2023/04/15 02:14:23;;;;;;;4.80;1.98;;;7.30;99.90;;;;;;6205447;22;20054;-80
2023/04/15 02:16:50;;;;;;;4.07;2.05;;;7.30;99.90;;;;;;6236140;22;20024;-81
2023/04/15 02:19:17;;;;;;;4.93;2.08;;;7.30;99.90;;;;;;6231294;22;20024;-80
2023/04/15 02:21:44;;;;;;;3.42;1.63;;;7.20;99.90;;;;;;6207749;22;20526;-81
2023/04/15 02:24:11;;;;;;;4.90;2.00;;;7.30;99.90;;;;;;6208832;22;20015;-80
2023/04/15 02:26:40;;;;;;;4.18;1.70;;;7.30;99.90;;;;;;6205385;22;20019;-80
2023/04/15 02:29:07;;;;;;;5.95;2.08;;;7.30;99.90;;;;;;6206230;22;20367;-81
2023/04/15 02:31:39;;;;;;;5.60;2.10;;;7.20;99.90;;;;;;6206569;22;20034;-81
2023/04/15 02:34:07;;;;;;;3.22;1.52;;;7.30;99.90;;;;;;6208475;22;20030;-80
2023/04/15 02:36:34;;;;;;;5.05;1.88;;;7.30;99.90;;;;;;6232124;22;20023;-80
2023/04/15 02:39:01;;;;;;;4.40;1.73;;;7.20;99.90;;;;;;6211596;22;20481;-82
2023/04/15 02:41:29;;;;;;;3.60;1.80;;;7.20;99.90;;;;;;6206122;22;20063;-80
2023/04/15 02:43:57;;;;;;;4.38;1.45;;;7.20;99.90;;;;;;6206309;22;20344;-80
2023/04/15 02:46:24;;;;;;;4.63;1.80;;;7.20;99.90;;;;;;6207805;22;20430;-81
2023/04/15 02:48:52;;;;;;;3.20;1.67;;;7.20;99.90;;;;;;6207867;22;20448;-81
2023/04/15 02:51:22;;;;;;;3.33;1.67;;;7.10;99.90;;;;;;6209672;22;20097;-81
2023/04/15 02:53:49;;;;;;;3.83;1.88;;;7.20;99.90;;;;;;6213770;22;20027;-81
2023/04/15 02:56:18;;;;;;;3.72;1.92;;;7.20;99.90;;;;;;6212938;22;20458;-81
2023/04/15 02:58:45;;;;;;;4.20;2.03;;;7.30;99.90;;;;;;6211436;22;20107;-81
2023/04/15 03:01:13;;;;;;;2.97;1.75;;;7.30;99.90;;;;;;6211105;22;20023;-81
2023/04/15 03:03:41;;;;;;;3.50;1.60;;;7.30;99.90;;;;;;6211121;22;20034;-81
2023/04/15 03:06:08;;;;;;;5.07;1.30;;;7.20;99.90;;;;;;6209977;22;20023;-81
2023/04/15 03:08:36;;;;;;;4.03;1.65;;;7.20;99.90;;;;;;6235448;22;20024;-81
2023/04/15 03:11:04;;;;;;;3.88;1.40;;;7.20;99.90;;;;;;6209661;22;20022;-81
2023/04/15 03:13:32;;;;;;;4.97;2.08;;;7.20;99.90;;;;;;6215177;22;20020;-80
2023/04/15 03:16:07;;;;;;;4.43;1.65;;;7.20;99.90;;;;;;6213238;22;20560;-81
2023/04/15 03:18:34;;;;;;;3.58;1.38;;;7.20;99.90;;;;;;6218325;22;20099;-80
2023/04/15 03:21:02;;;;;;;3.00;1.25;;;7.20;99.90;;;;;;6210156;22;20024;-80
2023/04/15 03:23:33;;;;;;;4.13;1.67;;;7.20;99.90;;;;;;6214808;22;20094;-80
2023/04/15 03:26:02;;;;;;;3.63;1.38;;;7.20;99.90;;;;;;6210511;22;20371;-80
2023/04/15 03:28:31;;;;;;;3.38;1.50;;;7.20;99.90;;;;;;6234277;22;20424;-81
2023/04/15 03:30:59;;;;;;;2.78;1.10;;;7.20;99.90;;;;;;6212022;22;20031;-81
2023/04/15 03:33:27;;;;;;;3.45;1.58;;;7.20;99.90;;;;;;6215003;22;20030;-81
2023/04/15 03:35:54;;;;;;;4.03;1.52;;;7.20;99.90;;;;;;6210675;22;20510;-81
2023/04/15 03:38:21;;;;;;;3.70;1.85;;;7.20;99.90;;;;;;6246601;22;20824;-81
2023/04/15 03:40:48;;;;;;;4.82;2.00;;;7.20;99.90;;;;;;6214571;22;20024;-80
2023/04/15 03:43:15;;;;;;;3.60;2.05;;;7.20;99.90;;;;;;6209459;22;20024;-80
2023/04/15 03:45:43;;;;;;;4.70;1.90;;;7.20;99.90;;;;;;6215557;22;20015;-80
2023/04/15 03:48:10;;;;;;;3.70;2.22;;;7.20;99.90;;;;;;6211168;22;20449;-80
2023/04/15 03:50:45;;;;;;;3.80;1.92;;;7.20;99.90;;;;;;6214470;22;20019;-80
2023/04/15 03:53:12;;;;;;;4.70;2.20;;;7.20;99.90;;;;;;6210958;22;20020;-80
2023/04/15 03:55:39;;;;;;;4.20;2.17;;;7.20;99.90;;;;;;6211509;22;20024;-80
2023/04/15 03:58:06;;;;;;;4.60;2.17;;;7.20;99.90;;;;;;6214293;22;20030;-80
2023/04/15 04:00:33;;;;;;;4.57;2.47;;;7.20;99.90;;;;;;6211657;22;20023;-81
2023/04/15 04:03:00;;;;;;;4.20;1.90;;;7.20;99.90;;;;;;6208844;22;20081;-81
2023/04/15 04:05:28;;;;;;;4.75;2.38;;;7.20;99.90;;;;;;6212168;22;20043;-81
2023/04/15 04:07:55;;;;;;;5.03;2.55;;;7.20;99.90;;;;;;6212000;22;20020;-81
2023/04/15 04:10:22;;;;;;;4.72;2.10;;;7.20;99.90;;;;;;6213274;22;20119;-80
2023/04/15 04:12:49;;;;;;;6.15;2.78;;;7.30;99.90;;;;;;6234847;22;20031;-81
2023/04/15 04:15:17;;;;;;;5.50;2.60;;;7.30;99.90;;;;;;6209141;22;20882;-80
2023/04/15 04:17:44;;;;;;;4.20;2.33;;;7.20;99.90;;;;;;6210140;22;20404;-80
2023/04/15 04:20:11;;;;;;;6.30;2.90;;;7.20;99.90;;;;;;6209678;22;20127;-80
2023/04/15 04:22:39;;;;;;;5.97;2.65;;;7.30;99.90;;;;;;6212303;22;20023;-80
2023/04/15 04:25:08;;;;;;;5.75;2.95;;;7.30;99.90;;;;;;6213327;22;20136;-80
2023/04/15 04:27:36;;;;;;;5.93;2.17;;;7.20;99.90;;;;;;6212119;22;20440;-80
2023/04/15 04:30:05;;;;;;;5.10;2.55;;;7.30;99.90;;;;;;6209199;22;20026;-80
2023/04/15 04:32:32;;;;;;;5.18;2.88;;;7.30;99.90;;;;;;6237920;22;20050;-81
2023/04/15 04:34:59;;;;;;;6.93;3.40;;;7.20;99.90;;;;;;6214742;22;20119;-80
2023/04/15 04:37:27;;;;;;;7.40;3.03;;;7.20;99.90;;;;;;6209361;22;20425;-80
2023/04/15 04:39:54;;;;;;;7.40;3.17;;;7.20;99.90;;;;;;6233557;22;20773;-81
2023/04/15 04:42:21;;;;;;;5.72;3.08;;;7.20;99.90;;;;;;6212924;22;20446;-81
2023/04/15 04:44:48;;;;;;;7.57;3.15;;;7.30;99.90;;;;;;6220320;22;20034;-80
2023/04/15 04:47:15;;;;;;;6.25;3.05;;;7.30;99.90;;;;;;6210583;22;20425;-80
2023/04/15 04:49:42;;;;;;;6.97;3.03;;;7.30;99.90;;;;;;6208672;22;20023;-81
2023/04/15 04:52:10;;;;;;;6.18;3.45;;;7.30;99.90;;;;;;6209397;22;20030;-81
2023/04/15 04:54:37;;;;;;;8.73;3.80;;;7.40;99.90;;;;;;6209197;22;20423;-80
2023/04/15 04:57:06;;;;;;;9.30;4.18;;;7.40;99.90;;;;;;6234505;22;20038;-81
2023/04/15 04:59:33;;;;;;;7.28;3.95;;;7.40;99.90;;;;;;6207837;22;20038;-80
2023/04/15 05:02:00;;;;;;;6.57;3.67;;;7.40;99.90;;;;;;6222284;22;20020;-80
2023/04/15 05:04:27;;;;;;;7.95;3.90;;;7.30;99.90;;;;;;6211584;22;20446;-80
2023/04/15 05:06:55;;;;;;;7.45;3.90;;;7.30;99.90;;;;;;6209863;22;20360;-80
2023/04/15 05:09:22;;;;;;;9.02;4.03;;;7.30;99.90;;;;;;6209233;22;20075;-80
2023/04/15 05:11:49;;;;;;;8.18;4.50;;;7.20;99.90;;;;;;6234820;22;20028;-80
2023/04/15 05:14:16;;;;;;;8.93;4.05;;;7.30;99.90;;;;;;6236091;22;20032;-80
2023/04/15 05:16:44;;;;;;;8.48;3.60;;;7.20;99.90;;;;;;6208806;22;20024;-81
2023/04/15 05:19:11;;;;;;;8.88;3.85;;;7.20;99.90;;;;;;6210180;22;20024;-80
2023/04/15 05:21:38;;;;;;;7.15;3.58;;;7.30;99.90;;;;;;6208307;22;20047;-79
2023/04/15 05:24:05;;;;;;;7.30;3.30;;;7.30;99.90;;;;;;6234793;22;20099;-79
2023/04/15 05:26:32;;;;;;;7.65;4.00;;;7.30;99.90;;;;;;6210719;22;20033;-79
2023/04/15 05:29:00;;;;;;;7.22;3.83;;;7.40;99.90;;;;;;6210338;22;20027;-80
2023/04/15 05:31:27;;;;;;;7.25;3.08;;;7.50;99.90;;;;;;6210130;22;20024;-79
2023/04/15 05:33:55;;;;;;;7.82;3.63;;;7.70;99.90;;;;;;6210140;22;20050;-80
2023/04/15 05:36:22;;;;;;;8.77;4.38;;;7.80;99.90;;;;;;6209783;22;20112;-79
2023/04/15 05:38:49;;;;;;;7.28;3.70;;;7.90;99.90;;;;;;6235737;22;20024;-79
2023/04/15 05:41:16;;;;;;;6.60;3.05;;;8.00;99.90;;;;;;6208862;22;20453;-79
2023/04/15 05:43:46;;;;;;;7.22;3.80;;;8.00;99.90;;;;;;6209821;22;20378;-78
2023/04/15 05:46:13;;;;;;;6.82;2.95;;;8.00;99.90;;;;;;6208016;22;20019;-80
2023/04/15 05:48:40;;;;;;;6.57;3.65;;;8.00;99.90;;;;;;6206511;22;20464;-78
2023/04/15 05:51:07;;;;;;;8.88;4.55;;;8.00;99.90;;;;;;6207839;22;20012;-78
2023/04/15 05:53:34;;;;;;;6.25;3.78;;;8.10;99.90;;;;;;6207083;22;20443;-79
2023/04/15 05:56:02;;;;;;;6.28;2.90;;;8.10;99.90;;;;;;6207478;22;20024;-78
2023/04/15 05:58:29;;;;;;;6.50;3.38;;;8.10;99.90;;;;;;6207024;22;20246;-78
2023/04/15 06:00:56;;;;;;;4.63;2.97;;;8.20;99.90;;;;;;6230337;22;20016;-80
2023/04/15 06:03:24;;;;;;;5.55;2.90;;;8.20;99.90;;;;;;6210631;22;20030;-79
2023/04/15 06:05:51;;;;;;;4.50;3.17;;;8.20;99.90;;;;;;6209724;22;20065;-79
2023/04/15 06:08:18;;;;;;;6.72;3.40;;;8.30;99.90;;;;;;6208596;22;20358;-80
2023/04/15 06:10:45;;;;;;;4.45;2.42;;;8.40;99.90;;;;;;6207531;22;20027;-78
2023/04/15 06:13:12;;;;;;;4.25;2.55;;;8.40;99.90;;;;;;6209134;22;20226;-78
2023/04/15 06:15:40;;;;;;;4.22;2.03;;;8.30;99.90;;;;;;6241347;22;20512;-78
2023/04/15 06:18:07;;;;;;;3.70;2.40;;;8.30;99.90;;;;;;6208536;22;20027;-79
2023/04/15 06:20:34;;;;;;;4.55;3.00;;;8.50;99.90;;;;;;6209841;22;20023;-79
2023/04/15 06:23:01;;;;;;;5.68;3.20;;;9.20;99.90;;;;;;6207477;22;20024;-79
2023/04/15 06:25:28;;;;;;;5.40;3.00;;;9.50;99.90;;;;;;6239445;22;20035;-78
2023/04/15 06:27:55;;;;;;;5.13;2.65;;;9.70;99.90;;;;;;6210289;22;20024;-79
2023/04/15 06:30:22;;;;;;;6.18;3.40;;;9.80;99.90;;;;;;6249064;22;20023;-79
2023/04/15 06:32:50;;;;;;;4.68;2.47;;;10.20;99.90;;;;;;6220160;22;20027;-80
2023/04/15 06:35:17;;;;;;;4.53;2.22;;;10.10;99.90;;;;;;6209495;22;20020;-79
2023/04/15 06:37:45;;;;;;;4.70;2.65;;;10.00;99.90;;;;;;6217629;22;20027;-79
2023/04/15 06:40:12;;;;;;;4.13;2.30;;;10.10;99.90;;;;;;6222456;22;20020;-78
2023/04/15 06:42:40;;;;;;;4.05;2.00;;;10.10;99.90;;;;;;6242996;22;20020;-79
2023/04/15 06:45:08;;;;;;;5.28;2.58;;;10.20;99.90;;;;;;6240146;22;20020;-80
2023/04/15 06:47:35;;;;;;;4.45;2.17;;;10.30;99.90;;;;;;6210466;22;20435;-79
2023/04/15 06:50:03;;;;;;;3.83;1.80;;;10.30;99.90;;;;;;6235675;22;20023;-78
2023/04/15 06:52:30;;;;;;;3.53;1.75;;;10.50;99.90;;;;;;6236377;22;20473;-79
2023/04/15 06:54:58;;;;;;;3.63;1.63;;;10.60;99.90;;;;;;6210562;22;20023;-78
2023/04/15 06:57:25;;;;;;;2.60;1.38;;;10.90;99.90;;;;;;6235577;22;20102;-80
2023/04/15 06:59:53;;;;;;;3.15;1.38;;;10.70;99.90;;;;;;6212841;22;20024;-78
2023/04/15 07:02:21;;;;;;;3.63;1.27;;;10.40;99.90;;;;;;6219531;22;20020;-81
2023/04/15 07:04:48;;;;;;;3.20;1.65;;;10.40;99.90;;;;;;6216339;22;20050;-80
2023/04/15 07:07:16;;;;;;;3.88;1.52;;;10.30;99.90;;;;;;6212866;22;20015;-79
2023/04/15 07:09:43;;;;;;;3.00;1.48;;;10.30;99.90;;;;;;6222995;22;20496;-78
2023/04/15 07:12:10;;;;;;;4.68;2.00;;;10.40;99.90;;;;;;6210272;22;20032;-77
2023/04/15 07:14:37;;;;;;;2.50;1.65;;;10.40;99.90;;;;;;6208950;22;20580;-77
2023/04/15 07:17:05;;;;;;;1.92;1.13;;;10.40;99.90;;;;;;6232582;22;20028;-79
2023/04/15 07:19:32;;;;;;;2.67;1.25;;;10.40;99.90;;;;;;6208831;22;20023;-78
2023/04/15 07:22:00;;;;;;;2.63;1.38;;;10.30;99.90;;;;;;6209677;22;20073;-78
2023/04/15 07:24:27;;;;;;;2.35;1.30;;;10.30;99.90;;;;;;6208664;22;20023;-77
2023/04/15 07:26:58;;;;;;;2.78;1.38;;;10.50;99.90;;;;;;6207975;22;20024;-78
2023/04/15 07:29:27;;;;;;;3.80;1.58;;;10.50;99.90;;;;;;6215538;22;20030;-78
2023/04/15 07:31:55;;;;;;;3.35;1.80;;;10.90;99.90;;;;;;6233330;22;20023;-77
2023/04/15 07:34:23;;;;;;;7.35;2.10;;;11.10;99.90;;;;;;6212631;22;20035;-78
2023/04/15 07:36:50;;;;;;;3.35;1.20;;;11.20;99.90;;;;;;6239397;22;20035;-80
2023/04/15 07:39:18;;;;;;;2.55;1.70;;;11.40;99.90;;;;;;6217180;22;20132;-79
2023/04/15 07:41:45;;;;;;;3.10;2.10;;;11.50;99.90;;;;;;6209959;22;20165;-77
2023/04/15 07:44:12;;;;;;;2.40;1.75;;;11.40;99.90;;;;;;6209877;22;20020;-79
2023/04/15 07:46:40;;;;;;;4.03;2.00;;;11.30;99.90;;;;;;6209492;22;20365;-79
2023/04/15 07:49:07;;;;;;;2.85;1.48;;;11.40;99.90;;;;;;6234129;22;20019;-77
2023/04/15 07:51:34;;;;;;;2.13;1.40;;;11.60;99.90;;;;;;6208575;22;20027;-79
2023/04/15 07:54:02;;;;;;;2.50;1.42;;;11.50;99.90;;;;;;6208209;22;20032;-78
2023/04/15 07:56:29;;;;;;;3.30;1.33;;;11.50;99.90;;;;;;6208618;22;20391;-78
2023/04/15 07:58:56;;;;;;;2.28;1.25;;;11.50;99.90;;;;;;6208595;22;20027;-80
2023/04/15 08:01:23;;;;;;;2.95;1.33;;;11.70;99.90;;;;;;6232935;22;20020;-79
2023/04/15 08:03:51;;;;;;;1.83;0.80;;;11.70;99.90;;;;;;6179889;22;20459;-77
2023/04/15 08:06:18;;;;;;;1.45;0.65;;;11.90;99.90;;;;;;6257901;22;20015;-77
2023/04/15 08:08:45;;;;;;;2.13;1.10;;;12.20;99.90;;;;;;6206716;22;20028;-77
2023/04/15 08:11:13;;;;;;;1.85;0.90;;;12.30;99.90;;;;;;6205916;22;20557;-77
2023/04/15 08:13:40;;;;;;;2.33;0.70;;;12.20;99.70;;;;;;6204975;22;20414;-76
2023/04/15 08:16:17;;;;;;;1.88;0.60;;;12.30;99.90;;;;;;6205963;22;20058;-78
2023/04/15 08:18:46;;;;;;;2.08;0.75;;;12.40;99.90;;;;;;6204672;22;20382;-78
2023/04/15 08:21:13;;;;;;;1.20;0.70;;;12.60;99.90;;;;;;6204872;22;20073;-76
2023/04/15 08:23:41;;;;;;;1.63;0.55;;;12.20;98.70;;;;;;6206125;22;20534;-79
2023/04/15 08:26:08;;;;;;;1.33;0.40;;;12.10;98.20;;;;;;6206436;22;20044;-78
2023/04/15 08:28:38;;;;;;;1.10;0.50;;;12.20;98.30;;;;;;6209060;22;20024;-77
2023/04/15 08:31:05;;;;;;;0.85;0.30;;;11.90;97.00;;;;;;6211024;22;20027;-79
2023/04/15 08:33:32;;;;;;;0.75;0.40;;;12.10;97.30;;;;;;6234506;22;20463;-79
2023/04/15 08:35:59;;;;;;;0.50;0.20;;;12.00;96.80;;;;;;6209120;22;20121;-79
2023/04/15 08:38:26;;;;;;;1.00;0.20;;;11.70;96.50;;;;;;6210116;22;20023;-78
2023/04/15 08:40:55;;;;;;;0.60;0.20;;;11.40;96.60;;;;;;6208849;22;20023;-78
2023/04/15 08:43:27;;;;;;;1.25;0.20;;;11.40;98.20;;;;;;6238703;22;20022;-79
2023/04/15 08:45:54;;;;;;;0.63;0.20;;;11.60;98.70;;;;;;6208567;22;20034;-78
2023/04/15 08:48:23;;;;;;;0.40;0.17;;;11.90;98.20;;;;;;6260268;22;20244;-78
2023/04/15 08:50:51;;;;;;;0.90;0.22;;;12.10;96.40;;;;;;6205021;22;20660;-78
2023/04/15 08:53:18;;;;;;;1.02;0.40;;;12.40;96.90;;;;;;6231854;22;20027;-79
2023/04/15 08:55:50;;;;;;;1.45;0.20;;;12.70;95.60;;;;;;6207088;22;20050;-78
2023/04/15 08:58:18;;;;;;;1.23;0.28;;;12.70;95.40;;;;;;6185166;22;20023;-78
2023/04/15 09:00:46;;;;;;;0.65;0.25;;;12.70;94.30;;;;;;6205206;22;20479;-79
2023/04/15 09:03:14;;;;;;;6.90;3.00;;;12.60;93.10;;;;;;6230175;22;20039;-78
2023/04/15 09:05:41;;;;;;;0.35;0.17;;;12.70;92.80;;;;;;6207649;22;20107;-81
2023/04/15 09:08:08;;;;;;;0.85;0.60;;;12.50;92.60;;;;;;6232172;22;20022;-79
2023/04/15 09:10:36;;;;;;;1.42;0.28;;;12.70;94.20;;;;;;6203972;22;20024;-78
2023/04/15 09:13:03;;;;;;;0.88;0.20;;;12.80;93.90;;;;;;6229771;22;20039;-77
2023/04/15 09:15:32;;;;;;;0.40;0.20;;;12.70;93.90;;;;;;6206849;22;20023;-77
2023/04/15 09:18:00;;;;;;;1.40;0.85;;;12.70;94.90;;;;;;6206201;22;20016;-79
2023/04/15 09:20:27;;;;;;;1.48;0.60;;;13.00;95.50;;;;;;6204450;22;20024;-79
2023/04/15 09:22:55;;;;;;;0.82;0.20;;;13.20;94.50;;;;;;6208364;22;20023;-77
2023/04/15 09:25:22;;;;;;;0.82;0.30;;;12.90;93.50;;;;;;6229575;22;20022;-78
2023/04/15 09:27:50;;;;;;;0.82;0.30;;;12.80;94.00;;;;;;6206720;22;20020;-78
2023/04/15 09:30:17;;;;;;;1.15;0.20;;;12.90;94.70;;;;;;6258274;22;20448;-77
2023/04/15 09:32:56;;;;;;;0.98;0.30;;;13.40;93.50;;;;;;6205927;22;20478;-78
2023/04/15 09:35:25;;;;;;;19.67;9.07;;;13.60;93.90;;;;;;6234677;22;20023;-79
2023/04/15 09:38:00;;;;;;;2.13;1.00;;;13.50;93.60;;;;;;6204676;22;20020;-78
2023/04/15 09:40:41;;;;;;;1.20;0.20;;;13.40;92.80;;;;;;6204454;22;20481;-79
2023/04/15 09:43:11;;;;;;;0.43;0.10;;;13.40;93.50;;;;;;6232072;22;20023;-79
2023/04/15 09:45:50;;;;;;;0.60;0.20;;;13.20;92.90;;;;;;6206176;22;20422;-78
2023/04/15 09:48:25;;;;;;;0.80;0.28;;;13.10;92.70;;;;;;6209498;22;20016;-78
2023/04/15 09:50:53;;;;;;;0.77;0.20;;;13.10;93.00;;;;;;6206564;22;20103;-79
2023/04/15 09:53:22;;;;;;;1.40;0.20;;;13.10;93.40;;;;;;6202191;22;20028;-77
2023/04/15 09:55:51;;;;;;;1.35;0.13;;;13.20;92.80;;;;;;6234701;22;20359;-77
2023/04/15 09:58:20;;;;;;;0.20;0.10;;;13.40;92.50;;;;;;6233423;22;20537;-77
2023/04/15 10:00:49;;;;;;;1.05;0.10;;;13.50;92.30;;;;;;6207384;22;20818;-76
2023/04/15 10:03:23;;;;;;;0.35;0.05;;;13.30;91.50;;;;;;6261546;22;20043;-78
2023/04/15 10:05:52;;;;;;;0.70;0.40;;;13.10;91.30;;;;;;6232788;22;20020;-78
2023/04/15 10:08:22;;;;;;;1.75;0.20;;;12.90;92.00;;;;;;6205188;22;20019;-78
2023/04/15 10:10:53;;;;;;;0.82;0.32;;;12.60;93.40;;;;;;6208136;22;20472;-77
2023/04/15 10:13:22;;;;;;;0.65;0.20;;;12.50;93.30;;;;;;6209508;22;20426;-76
2023/04/15 10:16:04;;;;;;;0.50;0.10;;;12.30;93.90;;;;;;6261350;22;20019;-78
2023/04/15 10:18:36;;;;;;;3.17;1.50;;;12.20;94.40;;;;;;6209630;22;20063;-79
2023/04/15 10:21:06;;;;;;;2.90;1.70;;;12.00;96.80;;;;;;6234117;22;20020;-76
2023/04/15 10:23:33;;;;;;;4.72;2.70;;;12.00;97.20;;;;;;6263022;22;20016;-77
2023/04/15 10:26:03;;;;;;;4.50;2.47;;;12.10;98.60;;;;;;6234347;22;20027;-76
2023/04/15 10:28:30;;;;;;;5.22;2.40;;;12.10;98.00;;;;;;6212903;22;20683;-78
2023/04/15 10:30:58;;;;;;;15.02;8.50;;;12.40;97.70;;;;;;6234861;22;20031;-78
2023/04/15 10:33:27;;;;;;;3.03;1.48;;;12.60;97.20;;;;;;6214832;22;20458;-77
2023/04/15 10:35:55;;;;;;;3.95;2.05;;;12.60;96.40;;;;;;6222672;22;20106;-76
2023/04/15 10:38:36;;;;;;;2.45;1.65;;;12.80;96.90;;;;;;6244704;22;20047;-79
2023/04/15 10:41:19;;;;;;;7.40;3.13;;;12.80;96.00;;;;;;6234487;22;20020;-77
2023/04/15 10:44:07;;;;;;;3.53;1.83;;;12.60;96.10;;;;;;6235805;22;20022;-77
2023/04/15 10:46:39;;;;;;;4.90;1.13;;;12.50;96.00;;;;;;6239478;22;20435;-78
2023/04/15 10:49:13;;;;;;;3.38;2.40;;;12.60;95.10;;;;;;6213596;22;20079;-77
2023/04/15 10:51:50;;;;;;;2.47;1.02;;;13.00;95.00;;;;;;6235998;22;20378;-78
2023/04/15 10:54:26;;;;;;;3.15;1.55;;;12.80;93.30;;;;;;6265086;22;20582;-77
2023/04/15 10:57:00;;;;;;;4.95;1.48;;;12.80;94.30;;;;;;6210194;22;20027;-77
2023/04/15 11:00:03;;;;;;;4.00;1.75;;;12.60;94.10;;;;;;6211208;22;20034;-79
2023/04/15 11:02:51;;;;;;;4.30;2.15;;;12.60;94.80;;;;;;6210504;22;20459;-77
2023/04/15 11:05:20;;;;;;;8.50;5.63;;;12.40;95.20;;;;;;6238596;22;20020;-80
2023/04/15 11:07:55;;;;;;;8.90;6.10;;;12.20;96.60;;;;;;6212307;22;20023;-78
2023/04/15 11:10:25;;;;;;;5.95;3.50;;;12.10;98.80;;;;;;6260487;22;20019;-78
2023/04/15 11:12:56;;;;;;;5.28;3.35;;;12.10;99.90;;;;;;6233900;22;20381;-77
2023/04/15 11:15:37;;;;;;;1.30;0.50;;;12.40;99.90;;;;;;6215757;22;20415;-78
2023/04/15 11:18:25;;;;;;;0.90;0.20;;;12.40;96.20;;;;;;6204153;22;20035;-77
2023/04/15 11:20:58;;;;;;;4.05;1.73;;;12.20;95.20;;;;;;6204452;22;20030;-76
2023/04/15 11:23:38;;;;;;;4.22;1.92;;;12.40;96.00;;;;;;6204680;22;20023;-75
2023/04/15 11:26:08;;;;;;;3.03;0.95;;;12.60;96.60;;;;;;6201225;22;20426;-77
2023/04/15 11:28:37;;;;;;;7.53;4.72;;;12.70;95.90;;;;;;6234375;22;20103;-78
2023/04/15 11:31:09;;;;;;;10.63;6.50;;;13.00;96.00;;;;;;6204805;22;20023;-78
2023/04/15 11:33:52;;;;;;;37.97;18.98;;;13.10;96.50;;;;;;6208076;22;20074;-75
2023/04/15 11:36:19;;;;;;;;;;;13.10;95.20;;;;;;6233922;22;20345;-77
2023/04/15 11:38:47;;;;;;;21.63;14.35;;;13.00;94.40;;;;;;6229205;22;20334;-78
2023/04/15 11:41:14;;;;;;;5.00;2.33;;;12.80;94.30;;;;;;6233361;22;20063;-77
2023/04/15 11:43:41;;;;;;;13.07;6.20;;;12.90;95.20;;;;;;6207942;22;20052;-76
2023/04/15 11:46:09;;;;;;;5.22;2.45;;;13.20;94.60;;;;;;6205601;22;20049;-75
2023/04/15 11:48:36;;;;;;;3.33;1.45;;;13.30;93.80;;;;;;6207760;22;20409;-77
2023/04/15 11:51:05;;;;;;;2.05;1.15;;;13.00;92.40;;;;;;6207597;22;20027;-77
2023/04/15 11:53:48;;;;;;;2.83;1.20;;;12.90;94.00;;;;;;6235606;22;20459;-77
2023/04/15 11:56:19;;;;;;;1.85;0.95;;;12.70;94.50;;;;;;6218278;22;20058;-78
2023/04/15 11:58:46;;;;;;;2.55;1.27;;;12.50;95.80;;;;;;6261542;22;20467;-76
2023/04/15 12:01:13;;;;;;;1.70;0.90;;;12.70;96.40;;;;;;6207199;22;20459;-76
2023/04/15 12:03:50;;;;;;;1.50;0.75;;;12.90;95.80;;;;;;6209786;22;20043;-78
2023/04/15 12:06:18;;;;;;;3.25;1.42;;;13.00;95.70;;;;;;6233097;22;20016;-76
2023/04/15 12:09:14;;;;;;;3.03;0.70;;;13.10;94.40;;;;;;6232093;22;20015;-76
2023/04/15 12:11:48;;;;;;;0.80;0.40;;;13.20;95.00;;;;;;6256904;22;20576;-76
2023/04/15 12:14:29;;;;;;;0.50;0.10;;;13.40;94.50;;;;;;6229797;22;20458;-77
2023/04/15 12:16:58;;;;;;;2.08;0.40;;;13.20;93.60;;;;;;6256939;22;20027;-77
2023/04/15 12:19:34;;;;;;;0.73;0.15;;;13.40;94.00;;;;;;6232683;22;20051;-77
2023/04/15 12:22:09;;;;;;;0.30;0.10;;;13.30;92.80;;;;;;6208151;22;20119;-77
2023/04/15 12:24:37;;;;;;;0.88;0.20;;;13.20;92.10;;;;;;6261943;22;20401;-77
2023/04/15 12:27:06;;;;;;;2.17;0.38;;;13.20;92.80;;;;;;6258789;22;20043;-76
2023/04/15 12:29:35;;;;;;;2.05;1.10;;;13.10;93.00;;;;;;6234353;22;20487;-77
2023/04/15 12:32:18;;;;;;;29.08;24.73;;;12.90;93.20;;;;;;6209437;22;20115;-78
2023/04/15 12:34:53;;;;;;;153.25;91.68;;;12.70;93.10;;;;;;6232611;22;20112;-78
2023/04/15 12:37:20;;;;;;;6.18;4.25;;;12.80;93.10;;;;;;6236888;22;20019;-79
2023/04/15 12:39:49;;;;;;;2.15;1.95;;;12.70;93.70;;;;;;6211839;22;20590;-75
2023/04/15 12:42:17;;;;;;;1.88;0.95;;;12.80;93.80;;;;;;6234048;22;20085;-80
2023/04/15 12:44:44;;;;;;;1.60;0.60;;;13.10;94.40;;;;;;6230969;22;20130;-78
2023/04/15 12:47:12;;;;;;;1.48;0.20;;;13.20;93.00;;;;;;6239594;22;20016;-78
2023/04/15 12:49:39;;;;;;;0.20;0.10;;;13.20;92.90;;;;;;6213690;22;20015;-78
2023/04/15 12:52:07;;;;;;;2.47;0.10;;;13.00;92.90;;;;;;6205606;22;20051;-78
2023/04/15 12:54:35;;;;;;;0.28;0.17;;;13.00;93.20;;;;;;6203446;22;20027;-78
2023/04/15 12:57:03;;;;;;;1.15;0.10;;;13.10;93.20;;;;;;6230294;22;20740;-78
2023/04/15 12:59:33;;;;;;;0.55;0.20;;;13.30;93.10;;;;;;6203891;22;20043;-76